Time;durP1;ratioP1;P1;durP2;ratioP2;P2;SDS_P1;SDS_P2;PMS_P1;PMS_P2;Temp;Humidity;BMP_temperature;BMP_pressure;BME280_temperature;BME280_humidity;BME280_pressure;Samples;Min_cycle;Max_cycle;Signal;HPM_P1;HPM_P2
2022/06/27 00:00:17;;;;;;;4.20;3.90;;;;;;;20.85;69.96;97095.16;4895523;28;20113;-81
2022/06/27 00:02:43;;;;;;;3.95;3.60;;;;;;;20.88;69.77;97091.91;4899258;28;20300;-81
2022/06/27 00:05:10;;;;;;;3.78;3.47;;;;;;;20.89;69.95;97111.22;4885678;28;20105;-81
2022/06/27 00:07:35;;;;;;;3.55;3.25;;;;;;;20.90;70.04;97115.41;4902227;28;21104;-81
2022/06/27 00:10:01;;;;;;;4.28;3.92;;;;;;;20.92;70.01;97116.66;4918229;28;20038;-81
2022/06/27 00:12:26;;;;;;;3.33;3.03;;;;;;;20.93;70.31;97114.78;4931398;28;20096;-80
2022/06/27 00:14:52;;;;;;;4.53;3.55;;;;;;;21.00;70.06;97123.03;4917882;28;20026;-81
2022/06/27 00:17:17;;;;;;;3.80;3.35;;;;;;;21.02;69.95;97143.91;4916158;28;20034;-81
2022/06/27 00:19:43;;;;;;;3.47;3.17;;;;;;;21.01;70.07;97148.41;4899568;28;20064;-79
2022/06/27 00:22:09;;;;;;;4.45;3.50;;;;;;;21.04;70.09;97141.72;4915227;28;20037;-79
2022/06/27 00:24:34;;;;;;;4.43;3.80;;;;;;;20.95;70.13;97131.13;4909210;28;20121;-79
2022/06/27 00:27:00;;;;;;;6.60;4.45;;;;;;;20.89;70.42;97113.88;4899842;28;20114;-79
2022/06/27 00:29:25;;;;;;;4.53;4.13;;;;;;;20.68;70.84;97081.94;4899145;28;21002;-79
2022/06/27 00:31:51;;;;;;;33.33;6.22;;;;;;;20.42;71.86;97058.13;4903386;28;20089;-79
2022/06/27 00:34:17;;;;;;;8.52;4.70;;;;;;;20.51;71.48;97074.75;4903819;28;20108;-78
2022/06/27 00:36:42;;;;;;;5.15;4.05;;;;;;;20.66;70.96;97092.84;4913170;28;20362;-78
2022/06/27 00:39:08;;;;;;;4.70;4.30;;;;;;;20.76;70.47;97103.13;4892754;28;20162;-81
2022/06/27 00:41:34;;;;;;;5.43;4.32;;;;;;;20.78;70.30;97100.16;4909135;28;20824;-80
2022/06/27 00:43:59;;;;;;;4.05;3.65;;;;;;;20.55;71.15;97094.22;4890658;28;20714;-80
2022/06/27 00:46:25;;;;;;;5.00;4.60;;;;;;;20.63;71.09;97097.97;4891070;28;20643;-80
2022/06/27 00:48:50;;;;;;;4.90;4.50;;;;;;;20.56;70.71;97078.06;4889157;28;20268;-80
2022/06/27 00:51:16;;;;;;;5.25;4.85;;;;;;;20.61;70.99;97069.16;4873732;28;20306;-79
2022/06/27 00:53:41;;;;;;;5.18;4.60;;;;;;;20.65;71.08;97072.00;4891058;28;20298;-80
2022/06/27 00:56:08;;;;;;;4.78;4.38;;;;;;;20.55;71.08;97059.84;4890268;28;20706;-80
2022/06/27 00:58:34;;;;;;;4.90;4.47;;;;;;;20.61;70.87;97049.88;4886009;28;20277;-80
2022/06/27 01:00:59;;;;;;;6.45;4.60;;;;;;;20.51;71.27;97043.81;4886815;28;20253;-79
2022/06/27 01:03:24;;;;;;;4.97;4.47;;;;;;;20.46;71.32;97033.41;4906479;28;20163;-81
2022/06/27 01:05:53;;;;;;;4.78;4.38;;;;;;;20.38;71.44;97016.44;4891558;28;20276;-82
2022/06/27 01:08:20;;;;;;;5.80;5.28;;;;;;;20.40;71.60;97008.97;4892478;28;20720;-80
2022/06/27 01:10:46;;;;;;;5.80;5.20;;;;;;;20.35;71.58;96992.47;4891777;28;20636;-82
2022/06/27 01:13:11;;;;;;;6.85;5.70;;;;;;;20.35;72.00;96987.19;4876261;28;20204;-81
2022/06/27 01:15:37;;;;;;;6.30;5.70;;;;;;;20.42;71.28;96984.84;4875733;28;20185;-81
2022/06/27 01:18:03;;;;;;;6.05;5.28;;;;;;;20.47;71.17;96995.28;4908046;28;20175;-81
2022/06/27 01:20:28;;;;;;;6.32;5.63;;;;;;;20.57;70.95;97007.41;4891163;28;20239;-82
2022/06/27 01:22:54;;;;;;;5.95;5.45;;;;;;;20.62;70.82;97015.22;4891371;28;20209;-82
2022/06/27 01:25:20;;;;;;;6.38;5.78;;;;;;;20.61;71.00;97015.47;4906662;28;20639;-82
2022/06/27 01:27:46;;;;;;;5.53;5.03;;;;;;;20.68;70.74;97015.81;4891807;28;20696;-81
2022/06/27 01:30:12;;;;;;;4.82;4.40;;;;;;;20.69;70.53;97012.84;4907363;28;20275;-79
2022/06/27 01:32:37;;;;;;;5.43;4.95;;;;;;;20.73;70.60;97015.66;4887452;28;20305;-79
2022/06/27 01:35:03;;;;;;;5.45;4.93;;;;;;;20.71;70.46;97018.59;4886410;28;20260;-79
